sensor_id;sensor_type;location;lat;lon;timestamp;P1;durP1;ratioP1;P2;durP2;ratioP2
2866;SDS011;1441;48.886;8.728;2023-06-22T00:00:48;9.47;;;6.80;;
2866;SDS011;1441;48.886;8.728;2023-06-22T00:03:14;10.17;;;7.70;;
2866;SDS011;1441;48.886;8.728;2023-06-22T00:05:40;7.57;;;6.57;;
2866;SDS011;1441;48.886;8.728;2023-06-22T00:08:06;9.00;;;6.97;;
2866;SDS011;1441;48.886;8.728;2023-06-22T00:10:32;7.90;;;6.73;;
2866;SDS011;1441;48.886;8.728;2023-06-22T00:12:57;10.80;;;8.03;;
2866;SDS011;1441;48.886;8.728;2023-06-22T00:15:23;9.83;;;7.87;;
2866;SDS011;1441;48.886;8.728;2023-06-22T00:17:49;8.80;;;7.00;;
2866;SDS011;1441;48.886;8.728;2023-06-22T00:20:15;8.77;;;6.90;;
2866;SDS011;1441;48.886;8.728;2023-06-22T00:22:43;10.77;;;8.23;;
2866;SDS011;1441;48.886;8.728;2023-06-22T00:25:09;9.33;;;7.80;;
2866;SDS011;1441;48.886;8.728;2023-06-22T00:27:35;8.50;;;7.40;;
2866;SDS011;1441;48.886;8.728;2023-06-22T00:30:01;10.67;;;7.40;;
2866;SDS011;1441;48.886;8.728;2023-06-22T00:32:28;8.37;;;7.03;;
2866;SDS011;1441;48.886;8.728;2023-06-22T00:34:53;8.20;;;7.40;;
2866;SDS011;1441;48.886;8.728;2023-06-22T00:37:19;8.70;;;7.80;;
2866;SDS011;1441;48.886;8.728;2023-06-22T00:39:47;8.97;;;7.73;;
2866;SDS011;1441;48.886;8.728;2023-06-22T00:42:13;7.17;;;6.50;;
2866;SDS011;1441;48.886;8.728;2023-06-22T00:44:39;11.37;;;7.50;;
2866;SDS011;1441;48.886;8.728;2023-06-22T00:47:05;12.50;;;7.40;;
2866;SDS011;1441;48.886;8.728;2023-06-22T00:49:31;13.50;;;7.20;;
2866;SDS011;1441;48.886;8.728;2023-06-22T00:51:57;9.63;;;6.40;;
2866;SDS011;1441;48.886;8.728;2023-06-22T00:54:23;8.70;;;6.70;;
2866;SDS011;1441;48.886;8.728;2023-06-22T00:56:53;7.70;;;6.83;;
2866;SDS011;1441;48.886;8.728;2023-06-22T00:59:21;8.10;;;7.13;;
2866;SDS011;1441;48.886;8.728;2023-06-22T01:01:47;10.70;;;7.37;;
2866;SDS011;1441;48.886;8.728;2023-06-22T01:04:12;10.60;;;8.13;;
2866;SDS011;1441;48.886;8.728;2023-06-22T01:06:44;10.03;;;8.00;;
2866;SDS011;1441;48.886;8.728;2023-06-22T01:09:22;9.60;;;7.40;;
2866;SDS011;1441;48.886;8.728;2023-06-22T01:11:53;13.83;;;8.67;;
2866;SDS011;1441;48.886;8.728;2023-06-22T01:14:25;10.10;;;8.70;;
2866;SDS011;1441;48.886;8.728;2023-06-22T01:16:59;9.70;;;8.70;;
2866;SDS011;1441;48.886;8.728;2023-06-22T01:21:55;10.87;;;8.80;;
2866;SDS011;1441;48.886;8.728;2023-06-22T01:24:28;8.87;;;8.00;;
2866;SDS011;1441;48.886;8.728;2023-06-22T01:27:12;10.53;;;7.67;;
2866;SDS011;1441;48.886;8.728;2023-06-22T01:29:46;8.30;;;7.50;;
2866;SDS011;1441;48.886;8.728;2023-06-22T01:32:17;9.17;;;7.70;;
2866;SDS011;1441;48.886;8.728;2023-06-22T01:34:44;9.53;;;8.10;;
2866;SDS011;1441;48.886;8.728;2023-06-22T01:37:11;10.10;;;8.23;;
2866;SDS011;1441;48.886;8.728;2023-06-22T01:39:38;9.13;;;8.23;;
2866;SDS011;1441;48.886;8.728;2023-06-22T01:42:04;9.37;;;7.20;;
2866;SDS011;1441;48.886;8.728;2023-06-22T01:44:31;9.23;;;8.20;;
2866;SDS011;1441;48.886;8.728;2023-06-22T01:46:57;12.87;;;9.83;;
2866;SDS011;1441;48.886;8.728;2023-06-22T01:49:23;11.70;;;9.13;;
2866;SDS011;1441;48.886;8.728;2023-06-22T01:51:49;12.07;;;9.30;;
2866;SDS011;1441;48.886;8.728;2023-06-22T01:54:15;11.60;;;9.27;;
2866;SDS011;1441;48.886;8.728;2023-06-22T01:56:40;10.07;;;8.20;;
2866;SDS011;1441;48.886;8.728;2023-06-22T02:01:59;12.20;;;8.57;;
2866;SDS011;1441;48.886;8.728;2023-06-22T02:04:34;10.53;;;9.40;;
2866;SDS011;1441;48.886;8.728;2023-06-22T02:07:09;11.13;;;9.03;;
2866;SDS011;1441;48.886;8.728;2023-06-22T02:09:38;12.30;;;9.40;;
2866;SDS011;1441;48.886;8.728;2023-06-22T02:12:09;9.83;;;8.83;;
2866;SDS011;1441;48.886;8.728;2023-06-22T02:14:37;18.60;;;9.93;;
2866;SDS011;1441;48.886;8.728;2023-06-22T02:17:04;9.57;;;8.73;;
2866;SDS011;1441;48.886;8.728;2023-06-22T02:19:32;9.80;;;8.80;;
2866;SDS011;1441;48.886;8.728;2023-06-22T02:22:01;9.63;;;8.63;;
2866;SDS011;1441;48.886;8.728;2023-06-22T02:24:26;10.10;;;7.60;;
2866;SDS011;1441;48.886;8.728;2023-06-22T02:26:52;9.53;;;8.13;;
2866;SDS011;1441;48.886;8.728;2023-06-22T02:29:17;8.80;;;7.90;;
2866;SDS011;1441;48.886;8.728;2023-06-22T02:31:43;8.80;;;7.80;;
2866;SDS011;1441;48.886;8.728;2023-06-22T02:34:09;13.80;;;10.13;;
2866;SDS011;1441;48.886;8.728;2023-06-22T02:36:34;11.37;;;10.10;;
2866;SDS011;1441;48.886;8.728;2023-06-22T02:39:00;11.00;;;9.90;;
2866;SDS011;1441;48.886;8.728;2023-06-22T02:41:26;12.83;;;10.33;;
2866;SDS011;1441;48.886;8.728;2023-06-22T02:43:52;9.37;;;8.47;;
2866;SDS011;1441;48.886;8.728;2023-06-22T02:46:18;12.20;;;10.10;;
2866;SDS011;1441;48.886;8.728;2023-06-22T02:48:43;11.03;;;8.87;;
2866;SDS011;1441;48.886;8.728;2023-06-22T02:51:09;14.07;;;10.53;;
2866;SDS011;1441;48.886;8.728;2023-06-22T02:53:34;12.27;;;9.40;;
2866;SDS011;1441;48.886;8.728;2023-06-22T02:56:01;10.43;;;8.70;;
2866;SDS011;1441;48.886;8.728;2023-06-22T02:58:30;12.47;;;8.93;;
2866;SDS011;1441;48.886;8.728;2023-06-22T03:01:03;9.40;;;8.50;;
2866;SDS011;1441;48.886;8.728;2023-06-22T03:03:29;10.73;;;9.60;;
2866;SDS011;1441;48.886;8.728;2023-06-22T03:05:55;12.80;;;9.80;;
2866;SDS011;1441;48.886;8.728;2023-06-22T03:08:21;10.30;;;9.10;;
2866;SDS011;1441;48.886;8.728;2023-06-22T03:10:46;11.03;;;8.67;;
2866;SDS011;1441;48.886;8.728;2023-06-22T03:13:12;11.70;;;9.00;;
2866;SDS011;1441;48.886;8.728;2023-06-22T03:15:37;10.83;;;8.63;;
2866;SDS011;1441;48.886;8.728;2023-06-22T03:18:03;11.80;;;9.23;;
2866;SDS011;1441;48.886;8.728;2023-06-22T03:20:29;10.83;;;8.27;;
2866;SDS011;1441;48.886;8.728;2023-06-22T03:22:58;13.33;;;8.10;;
2866;SDS011;1441;48.886;8.728;2023-06-22T03:25:24;10.27;;;7.83;;
2866;SDS011;1441;48.886;8.728;2023-06-22T03:27:49;12.40;;;8.20;;
2866;SDS011;1441;48.886;8.728;2023-06-22T03:30:15;11.03;;;8.63;;
2866;SDS011;1441;48.886;8.728;2023-06-22T03:32:40;8.73;;;7.83;;
2866;SDS011;1441;48.886;8.728;2023-06-22T03:35:07;9.27;;;8.27;;
2866;SDS011;1441;48.886;8.728;2023-06-22T03:37:33;9.70;;;8.00;;
2866;SDS011;1441;48.886;8.728;2023-06-22T03:39:59;10.37;;;7.90;;
2866;SDS011;1441;48.886;8.728;2023-06-22T03:42:25;11.70;;;8.87;;
2866;SDS011;1441;48.886;8.728;2023-06-22T03:44:51;9.47;;;8.47;;
2866;SDS011;1441;48.886;8.728;2023-06-22T03:47:16;8.80;;;7.90;;
2866;SDS011;1441;48.886;8.728;2023-06-22T03:49:42;9.03;;;7.93;;
2866;SDS011;1441;48.886;8.728;2023-06-22T03:52:08;13.40;;;8.00;;
2866;SDS011;1441;48.886;8.728;2023-06-22T03:54:35;11.23;;;7.37;;
2866;SDS011;1441;48.886;8.728;2023-06-22T03:57:01;7.50;;;6.80;;
2866;SDS011;1441;48.886;8.728;2023-06-22T03:59:27;8.13;;;7.03;;
2866;SDS011;1441;48.886;8.728;2023-06-22T04:01:52;8.23;;;6.80;;
2866;SDS011;1441;48.886;8.728;2023-06-22T04:04:18;10.10;;;7.53;;
2866;SDS011;1441;48.886;8.728;2023-06-22T04:06:44;10.70;;;8.57;;
2866;SDS011;1441;48.886;8.728;2023-06-22T04:09:09;8.53;;;7.20;;
2866;SDS011;1441;48.886;8.728;2023-06-22T04:11:35;9.00;;;7.70;;
2866;SDS011;1441;48.886;8.728;2023-06-22T04:14:01;8.57;;;7.10;;
2866;SDS011;1441;48.886;8.728;2023-06-22T04:16:26;7.77;;;6.77;;
2866;SDS011;1441;48.886;8.728;2023-06-22T04:18:52;12.00;;;7.43;;
2866;SDS011;1441;48.886;8.728;2023-06-22T04:21:17;8.60;;;7.20;;
2866;SDS011;1441;48.886;8.728;2023-06-22T04:23:47;8.53;;;7.57;;
2866;SDS011;1441;48.886;8.728;2023-06-22T04:26:13;8.90;;;7.60;;
2866;SDS011;1441;48.886;8.728;2023-06-22T04:28:41;8.83;;;7.10;;
2866;SDS011;1441;48.886;8.728;2023-06-22T04:31:07;10.60;;;7.30;;
2866;SDS011;1441;48.886;8.728;2023-06-22T04:33:32;7.60;;;6.77;;
2866;SDS011;1441;48.886;8.728;2023-06-22T04:35:58;8.23;;;6.73;;
2866;SDS011;1441;48.886;8.728;2023-06-22T04:38:26;12.43;;;8.37;;
2866;SDS011;1441;48.886;8.728;2023-06-22T04:40:52;8.70;;;7.33;;
2866;SDS011;1441;48.886;8.728;2023-06-22T04:43:18;13.97;;;7.60;;
2866;SDS011;1441;48.886;8.728;2023-06-22T04:45:44;8.80;;;7.27;;
2866;SDS011;1441;48.886;8.728;2023-06-22T04:48:09;8.20;;;7.40;;
2866;SDS011;1441;48.886;8.728;2023-06-22T04:50:40;10.30;;;8.53;;
2866;SDS011;1441;48.886;8.728;2023-06-22T04:53:06;11.90;;;7.87;;
2866;SDS011;1441;48.886;8.728;2023-06-22T04:55:32;13.30;;;7.63;;
2866;SDS011;1441;48.886;8.728;2023-06-22T04:57:58;9.90;;;7.60;;
2866;SDS011;1441;48.886;8.728;2023-06-22T05:00:30;8.53;;;7.10;;
2866;SDS011;1441;48.886;8.728;2023-06-22T05:02:56;7.83;;;7.13;;
2866;SDS011;1441;48.886;8.728;2023-06-22T05:05:23;13.50;;;7.77;;
2866;SDS011;1441;48.886;8.728;2023-06-22T05:07:50;10.60;;;7.90;;
2866;SDS011;1441;48.886;8.728;2023-06-22T05:10:18;7.27;;;6.57;;
2866;SDS011;1441;48.886;8.728;2023-06-22T05:12:44;9.93;;;7.57;;
2866;SDS011;1441;48.886;8.728;2023-06-22T05:15:11;12.00;;;8.40;;
2866;SDS011;1441;48.886;8.728;2023-06-22T05:17:36;9.83;;;7.20;;
2866;SDS011;1441;48.886;8.728;2023-06-22T05:20:08;7.53;;;6.80;;
2866;SDS011;1441;48.886;8.728;2023-06-22T05:22:35;11.30;;;7.43;;
2866;SDS011;1441;48.886;8.728;2023-06-22T05:25:01;7.10;;;6.40;;
2866;SDS011;1441;48.886;8.728;2023-06-22T05:27:26;9.07;;;7.33;;
2866;SDS011;1441;48.886;8.728;2023-06-22T05:29:52;11.00;;;7.10;;
2866;SDS011;1441;48.886;8.728;2023-06-22T05:32:17;13.43;;;7.10;;
2866;SDS011;1441;48.886;8.728;2023-06-22T05:34:43;9.43;;;6.83;;
2866;SDS011;1441;48.886;8.728;2023-06-22T05:37:09;12.43;;;7.83;;
2866;SDS011;1441;48.886;8.728;2023-06-22T05:39:35;9.20;;;7.00;;
2866;SDS011;1441;48.886;8.728;2023-06-22T05:42:03;10.33;;;7.10;;
2866;SDS011;1441;48.886;8.728;2023-06-22T05:44:32;9.17;;;7.50;;
2866;SDS011;1441;48.886;8.728;2023-06-22T05:46:58;9.27;;;7.07;;
2866;SDS011;1441;48.886;8.728;2023-06-22T05:49:24;7.20;;;6.17;;
2866;SDS011;1441;48.886;8.728;2023-06-22T05:51:54;8.67;;;7.20;;
2866;SDS011;1441;48.886;8.728;2023-06-22T05:54:20;10.67;;;7.87;;
2866;SDS011;1441;48.886;8.728;2023-06-22T05:56:46;8.87;;;7.30;;
2866;SDS011;1441;48.886;8.728;2023-06-22T05:59:11;8.33;;;6.83;;
2866;SDS011;1441;48.886;8.728;2023-06-22T06:01:37;8.23;;;7.43;;
2866;SDS011;1441;48.886;8.728;2023-06-22T06:04:03;7.80;;;6.87;;
2866;SDS011;1441;48.886;8.728;2023-06-22T06:06:29;8.80;;;6.20;;
2866;SDS011;1441;48.886;8.728;2023-06-22T06:08:55;15.50;;;7.20;;
2866;SDS011;1441;48.886;8.728;2023-06-22T06:11:21;8.37;;;5.83;;
2866;SDS011;1441;48.886;8.728;2023-06-22T06:13:47;8.57;;;5.60;;
2866;SDS011;1441;48.886;8.728;2023-06-22T06:16:12;8.53;;;5.80;;
2866;SDS011;1441;48.886;8.728;2023-06-22T06:18:38;9.93;;;5.73;;
2866;SDS011;1441;48.886;8.728;2023-06-22T06:21:04;9.93;;;5.23;;
2866;SDS011;1441;48.886;8.728;2023-06-22T06:23:30;11.03;;;5.20;;
2866;SDS011;1441;48.886;8.728;2023-06-22T06:25:55;7.63;;;5.43;;
2866;SDS011;1441;48.886;8.728;2023-06-22T06:28:21;14.00;;;5.53;;
2866;SDS011;1441;48.886;8.728;2023-06-22T06:30:47;7.83;;;5.30;;
2866;SDS011;1441;48.886;8.728;2023-06-22T06:33:13;11.13;;;5.40;;
2866;SDS011;1441;48.886;8.728;2023-06-22T06:35:38;12.50;;;5.17;;
2866;SDS011;1441;48.886;8.728;2023-06-22T06:38:04;9.83;;;5.60;;
2866;SDS011;1441;48.886;8.728;2023-06-22T06:40:30;9.93;;;5.40;;
2866;SDS011;1441;48.886;8.728;2023-06-22T06:42:55;7.40;;;4.97;;
2866;SDS011;1441;48.886;8.728;2023-06-22T06:45:22;6.83;;;5.30;;
2866;SDS011;1441;48.886;8.728;2023-06-22T06:47:48;6.57;;;4.90;;
2866;SDS011;1441;48.886;8.728;2023-06-22T06:50:15;5.83;;;4.33;;
2866;SDS011;1441;48.886;8.728;2023-06-22T06:52:41;4.97;;;4.33;;
2866;SDS011;1441;48.886;8.728;2023-06-22T06:55:07;7.20;;;5.50;;
2866;SDS011;1441;48.886;8.728;2023-06-22T06:57:36;10.20;;;4.30;;
2866;SDS011;1441;48.886;8.728;2023-06-22T07:00:07;5.97;;;4.10;;
2866;SDS011;1441;48.886;8.728;2023-06-22T07:02:37;6.77;;;4.50;;
2866;SDS011;1441;48.886;8.728;2023-06-22T07:05:05;8.50;;;4.90;;
2866;SDS011;1441;48.886;8.728;2023-06-22T07:07:31;4.60;;;3.67;;
2866;SDS011;1441;48.886;8.728;2023-06-22T07:09:57;7.00;;;4.20;;
2866;SDS011;1441;48.886;8.728;2023-06-22T07:12:22;7.27;;;4.07;;
2866;SDS011;1441;48.886;8.728;2023-06-22T07:14:48;3.97;;;3.57;;
2866;SDS011;1441;48.886;8.728;2023-06-22T07:17:15;5.00;;;4.50;;
2866;SDS011;1441;48.886;8.728;2023-06-22T07:19:40;5.03;;;3.50;;
2866;SDS011;1441;48.886;8.728;2023-06-22T07:22:07;4.07;;;3.67;;
2866;SDS011;1441;48.886;8.728;2023-06-22T07:24:32;4.63;;;3.67;;
2866;SDS011;1441;48.886;8.728;2023-06-22T07:26:58;6.30;;;3.63;;
2866;SDS011;1441;48.886;8.728;2023-06-22T07:29:24;5.03;;;3.70;;
2866;SDS011;1441;48.886;8.728;2023-06-22T07:31:50;5.20;;;4.70;;
2866;SDS011;1441;48.886;8.728;2023-06-22T07:34:21;5.30;;;3.83;;
2866;SDS011;1441;48.886;8.728;2023-06-22T07:36:47;8.23;;;4.10;;
2866;SDS011;1441;48.886;8.728;2023-06-22T07:39:12;6.13;;;4.70;;
2866;SDS011;1441;48.886;8.728;2023-06-22T07:41:41;4.57;;;4.17;;
2866;SDS011;1441;48.886;8.728;2023-06-22T07:44:06;6.83;;;4.13;;
2866;SDS011;1441;48.886;8.728;2023-06-22T07:46:32;9.77;;;4.10;;
2866;SDS011;1441;48.886;8.728;2023-06-22T07:48:58;6.10;;;4.37;;
2866;SDS011;1441;48.886;8.728;2023-06-22T07:51:24;6.30;;;4.70;;
2866;SDS011;1441;48.886;8.728;2023-06-22T07:53:50;7.77;;;4.50;;
2866;SDS011;1441;48.886;8.728;2023-06-22T07:56:16;6.10;;;4.07;;
2866;SDS011;1441;48.886;8.728;2023-06-22T07:58:45;7.80;;;4.17;;
2866;SDS011;1441;48.886;8.728;2023-06-22T08:01:12;13.60;;;5.20;;
2866;SDS011;1441;48.886;8.728;2023-06-22T08:03:57;7.70;;;4.43;;
2866;SDS011;1441;48.886;8.728;2023-06-22T08:06:31;6.70;;;4.40;;
2866;SDS011;1441;48.886;8.728;2023-06-22T08:08:57;7.77;;;4.60;;
2866;SDS011;1441;48.886;8.728;2023-06-22T08:11:24;16.67;;;4.53;;
2866;SDS011;1441;48.886;8.728;2023-06-22T08:13:50;13.23;;;4.43;;
2866;SDS011;1441;48.886;8.728;2023-06-22T08:16:16;7.23;;;4.23;;
2866;SDS011;1441;48.886;8.728;2023-06-22T08:18:42;6.43;;;4.27;;
2866;SDS011;1441;48.886;8.728;2023-06-22T08:21:08;7.80;;;4.47;;
2866;SDS011;1441;48.886;8.728;2023-06-22T08:23:33;8.77;;;4.47;;
2866;SDS011;1441;48.886;8.728;2023-06-22T08:26:00;6.70;;;4.97;;
2866;SDS011;1441;48.886;8.728;2023-06-22T08:28:25;12.23;;;5.13;;
2866;SDS011;1441;48.886;8.728;2023-06-22T08:30:51;8.20;;;5.23;;
2866;SDS011;1441;48.886;8.728;2023-06-22T08:33:16;10.00;;;5.37;;
2866;SDS011;1441;48.886;8.728;2023-06-22T08:35:42;7.07;;;4.63;;
2866;SDS011;1441;48.886;8.728;2023-06-22T08:38:08;7.00;;;4.50;;
2866;SDS011;1441;48.886;8.728;2023-06-22T08:40:34;7.47;;;4.33;;
2866;SDS011;1441;48.886;8.728;2023-06-22T08:42:59;6.93;;;4.20;;
2866;SDS011;1441;48.886;8.728;2023-06-22T08:45:25;9.73;;;4.67;;
2866;SDS011;1441;48.886;8.728;2023-06-22T08:47:50;7.23;;;4.90;;
2866;SDS011;1441;48.886;8.728;2023-06-22T08:50:16;7.40;;;4.03;;
2866;SDS011;1441;48.886;8.728;2023-06-22T08:52:42;6.07;;;4.90;;
2866;SDS011;1441;48.886;8.728;2023-06-22T08:55:08;8.93;;;5.13;;
2866;SDS011;1441;48.886;8.728;2023-06-22T08:57:34;13.27;;;5.70;;
2866;SDS011;1441;48.886;8.728;2023-06-22T09:00:02;6.60;;;5.10;;
2866;SDS011;1441;48.886;8.728;2023-06-22T09:02:30;9.33;;;5.00;;
2866;SDS011;1441;48.886;8.728;2023-06-22T09:04:56;12.63;;;5.87;;
2866;SDS011;1441;48.886;8.728;2023-06-22T09:07:23;6.97;;;4.33;;
2866;SDS011;1441;48.886;8.728;2023-06-22T09:09:49;6.90;;;4.30;;
2866;SDS011;1441;48.886;8.728;2023-06-22T09:12:16;4.93;;;3.83;;
2866;SDS011;1441;48.886;8.728;2023-06-22T09:14:42;5.40;;;4.13;;
2866;SDS011;1441;48.886;8.728;2023-06-22T09:17:07;7.27;;;4.77;;
2866;SDS011;1441;48.886;8.728;2023-06-22T09:19:33;8.37;;;5.03;;
2866;SDS011;1441;48.886;8.728;2023-06-22T09:21:59;9.53;;;4.20;;
2866;SDS011;1441;48.886;8.728;2023-06-22T09:24:25;7.10;;;4.37;;
2866;SDS011;1441;48.886;8.728;2023-06-22T09:26:51;4.90;;;3.80;;
2866;SDS011;1441;48.886;8.728;2023-06-22T09:29:16;10.70;;;4.70;;
2866;SDS011;1441;48.886;8.728;2023-06-22T09:31:42;9.17;;;4.47;;
2866;SDS011;1441;48.886;8.728;2023-06-22T09:34:07;7.63;;;4.40;;
2866;SDS011;1441;48.886;8.728;2023-06-22T09:36:33;5.53;;;4.60;;
2866;SDS011;1441;48.886;8.728;2023-06-22T09:38:59;11.40;;;4.53;;
2866;SDS011;1441;48.886;8.728;2023-06-22T09:41:26;4.30;;;3.77;;
2866;SDS011;1441;48.886;8.728;2023-06-22T09:43:52;11.23;;;4.90;;
2866;SDS011;1441;48.886;8.728;2023-06-22T09:46:18;9.30;;;4.90;;
2866;SDS011;1441;48.886;8.728;2023-06-22T09:48:46;10.17;;;5.30;;
2866;SDS011;1441;48.886;8.728;2023-06-22T09:51:11;9.00;;;4.10;;
2866;SDS011;1441;48.886;8.728;2023-06-22T09:53:37;10.27;;;4.87;;
2866;SDS011;1441;48.886;8.728;2023-06-22T09:56:03;7.07;;;4.30;;
2866;SDS011;1441;48.886;8.728;2023-06-22T09:58:29;6.30;;;4.53;;
2866;SDS011;1441;48.886;8.728;2023-06-22T10:00:54;6.07;;;4.40;;
2866;SDS011;1441;48.886;8.728;2023-06-22T10:03:20;10.30;;;4.60;;
2866;SDS011;1441;48.886;8.728;2023-06-22T10:05:46;12.30;;;5.20;;
2866;SDS011;1441;48.886;8.728;2023-06-22T10:08:11;8.20;;;4.60;;
2866;SDS011;1441;48.886;8.728;2023-06-22T10:10:37;7.33;;;5.50;;
2866;SDS011;1441;48.886;8.728;2023-06-22T10:13:07;7.30;;;4.27;;
2866;SDS011;1441;48.886;8.728;2023-06-22T10:15:35;7.53;;;4.47;;
2866;SDS011;1441;48.886;8.728;2023-06-22T10:18:01;10.83;;;4.80;;
2866;SDS011;1441;48.886;8.728;2023-06-22T10:20:26;11.73;;;4.90;;
2866;SDS011;1441;48.886;8.728;2023-06-22T10:22:53;8.67;;;4.67;;
2866;SDS011;1441;48.886;8.728;2023-06-22T10:25:18;5.30;;;4.73;;
2866;SDS011;1441;48.886;8.728;2023-06-22T10:27:44;10.13;;;5.37;;
2866;SDS011;1441;48.886;8.728;2023-06-22T10:30:10;11.20;;;4.43;;
2866;SDS011;1441;48.886;8.728;2023-06-22T10:32:37;6.03;;;4.47;;
2866;SDS011;1441;48.886;8.728;2023-06-22T10:35:04;11.83;;;4.90;;
2866;SDS011;1441;48.886;8.728;2023-06-22T10:37:30;11.40;;;5.50;;
2866;SDS011;1441;48.886;8.728;2023-06-22T10:39:55;7.03;;;4.60;;
2866;SDS011;1441;48.886;8.728;2023-06-22T10:42:21;7.50;;;4.50;;
2866;SDS011;1441;48.886;8.728;2023-06-22T10:44:47;9.67;;;4.53;;
2866;SDS011;1441;48.886;8.728;2023-06-22T10:47:12;7.83;;;4.67;;
2866;SDS011;1441;48.886;8.728;2023-06-22T10:49:38;9.93;;;4.60;;
2866;SDS011;1441;48.886;8.728;2023-06-22T10:52:05;7.30;;;4.70;;
2866;SDS011;1441;48.886;8.728;2023-06-22T10:54:32;13.27;;;5.67;;
2866;SDS011;1441;48.886;8.728;2023-06-22T10:56:58;8.20;;;4.53;;
2866;SDS011;1441;48.886;8.728;2023-06-22T10:59:24;6.17;;;4.33;;
2866;SDS011;1441;48.886;8.728;2023-06-22T11:01:51;6.87;;;4.50;;
2866;SDS011;1441;48.886;8.728;2023-06-22T11:04:17;7.33;;;4.10;;
2866;SDS011;1441;48.886;8.728;2023-06-22T11:06:43;13.73;;;5.10;;
2866;SDS011;1441;48.886;8.728;2023-06-22T11:09:08;12.90;;;4.73;;
2866;SDS011;1441;48.886;8.728;2023-06-22T11:11:34;11.23;;;4.97;;
2866;SDS011;1441;48.886;8.728;2023-06-22T11:14:00;10.30;;;4.00;;
2866;SDS011;1441;48.886;8.728;2023-06-22T11:16:25;6.97;;;4.97;;
2866;SDS011;1441;48.886;8.728;2023-06-22T11:18:51;5.80;;;4.60;;
2866;SDS011;1441;48.886;8.728;2023-06-22T11:21:16;7.50;;;5.27;;
2866;SDS011;1441;48.886;8.728;2023-06-22T11:23:42;6.67;;;5.07;;
2866;SDS011;1441;48.886;8.728;2023-06-22T11:26:07;6.13;;;4.43;;
2866;SDS011;1441;48.886;8.728;2023-06-22T11:28:33;8.57;;;4.40;;
2866;SDS011;1441;48.886;8.728;2023-06-22T11:30:59;11.30;;;5.67;;
2866;SDS011;1441;48.886;8.728;2023-06-22T11:33:25;7.10;;;4.90;;
2866;SDS011;1441;48.886;8.728;2023-06-22T11:35:50;9.77;;;4.90;;
2866;SDS011;1441;48.886;8.728;2023-06-22T11:38:16;12.60;;;4.97;;
2866;SDS011;1441;48.886;8.728;2023-06-22T11:40:42;12.80;;;5.33;;
2866;SDS011;1441;48.886;8.728;2023-06-22T11:43:07;7.53;;;5.30;;
2866;SDS011;1441;48.886;8.728;2023-06-22T11:45:33;7.03;;;4.83;;
2866;SDS011;1441;48.886;8.728;2023-06-22T11:47:58;7.03;;;5.20;;
2866;SDS011;1441;48.886;8.728;2023-06-22T11:50:24;7.33;;;5.60;;
2866;SDS011;1441;48.886;8.728;2023-06-22T11:52:50;5.20;;;4.70;;
2866;SDS011;1441;48.886;8.728;2023-06-22T11:55:17;5.97;;;5.37;;
2866;SDS011;1441;48.886;8.728;2023-06-22T11:57:56;18.33;;;5.83;;
2866;SDS011;1441;48.886;8.728;2023-06-22T12:00:24;8.87;;;5.30;;
2866;SDS011;1441;48.886;8.728;2023-06-22T12:02:50;7.40;;;5.20;;
2866;SDS011;1441;48.886;8.728;2023-06-22T12:05:17;8.20;;;5.10;;
2866;SDS011;1441;48.886;8.728;2023-06-22T12:07:49;5.80;;;4.93;;
2866;SDS011;1441;48.886;8.728;2023-06-22T12:10:15;12.57;;;5.77;;
2866;SDS011;1441;48.886;8.728;2023-06-22T12:12:41;10.37;;;5.37;;
2866;SDS011;1441;48.886;8.728;2023-06-22T12:15:08;8.33;;;5.60;;
2866;SDS011;1441;48.886;8.728;2023-06-22T12:17:35;9.40;;;5.43;;
2866;SDS011;1441;48.886;8.728;2023-06-22T12:20:01;8.53;;;4.80;;
2866;SDS011;1441;48.886;8.728;2023-06-22T12:22:29;8.37;;;5.33;;
2866;SDS011;1441;48.886;8.728;2023-06-22T12:24:54;10.60;;;5.20;;
2866;SDS011;1441;48.886;8.728;2023-06-22T12:27:20;10.97;;;5.90;;
2866;SDS011;1441;48.886;8.728;2023-06-22T12:29:45;7.67;;;5.83;;
2866;SDS011;1441;48.886;8.728;2023-06-22T12:32:12;11.17;;;5.63;;
2866;SDS011;1441;48.886;8.728;2023-06-22T12:34:38;14.07;;;4.93;;
2866;SDS011;1441;48.886;8.728;2023-06-22T12:37:04;7.20;;;5.23;;
2866;SDS011;1441;48.886;8.728;2023-06-22T12:39:33;10.77;;;4.90;;
2866;SDS011;1441;48.886;8.728;2023-06-22T12:41:59;6.00;;;5.00;;
2866;SDS011;1441;48.886;8.728;2023-06-22T12:44:25;11.97;;;5.80;;
2866;SDS011;1441;48.886;8.728;2023-06-22T12:46:50;11.90;;;5.70;;
2866;SDS011;1441;48.886;8.728;2023-06-22T12:49:16;7.10;;;5.20;;
2866;SDS011;1441;48.886;8.728;2023-06-22T12:51:42;7.27;;;5.77;;
2866;SDS011;1441;48.886;8.728;2023-06-22T12:54:08;10.27;;;5.40;;
2866;SDS011;1441;48.886;8.728;2023-06-22T12:56:34;7.97;;;5.63;;
2866;SDS011;1441;48.886;8.728;2023-06-22T12:59:00;12.13;;;5.33;;
2866;SDS011;1441;48.886;8.728;2023-06-22T13:01:29;5.50;;;4.50;;
2866;SDS011;1441;48.886;8.728;2023-06-22T13:03:58;8.60;;;4.87;;
2866;SDS011;1441;48.886;8.728;2023-06-22T13:06:24;11.40;;;5.60;;
2866;SDS011;1441;48.886;8.728;2023-06-22T13:08:49;10.47;;;5.07;;
2866;SDS011;1441;48.886;8.728;2023-06-22T13:11:15;10.80;;;5.97;;
2866;SDS011;1441;48.886;8.728;2023-06-22T13:13:41;10.07;;;5.63;;
2866;SDS011;1441;48.886;8.728;2023-06-22T13:16:06;11.70;;;5.60;;
2866;SDS011;1441;48.886;8.728;2023-06-22T13:18:32;8.17;;;5.30;;
2866;SDS011;1441;48.886;8.728;2023-06-22T13:21:00;11.50;;;5.40;;
2866;SDS011;1441;48.886;8.728;2023-06-22T13:23:29;7.33;;;5.13;;
2866;SDS011;1441;48.886;8.728;2023-06-22T13:25:55;10.73;;;5.53;;
2866;SDS011;1441;48.886;8.728;2023-06-22T13:28:20;10.23;;;6.03;;
2866;SDS011;1441;48.886;8.728;2023-06-22T13:30:46;11.70;;;4.83;;
2866;SDS011;1441;48.886;8.728;2023-06-22T13:33:14;12.93;;;6.00;;
2866;SDS011;1441;48.886;8.728;2023-06-22T13:35:40;13.37;;;5.10;;
2866;SDS011;1441;48.886;8.728;2023-06-22T13:38:09;8.60;;;5.23;;
2866;SDS011;1441;48.886;8.728;2023-06-22T13:40:35;10.73;;;5.17;;
2866;SDS011;1441;48.886;8.728;2023-06-22T13:43:02;10.17;;;5.53;;
2866;SDS011;1441;48.886;8.728;2023-06-22T13:45:28;7.37;;;5.20;;
2866;SDS011;1441;48.886;8.728;2023-06-22T13:47:54;10.73;;;5.67;;
2866;SDS011;1441;48.886;8.728;2023-06-22T13:50:20;9.17;;;5.00;;
2866;SDS011;1441;48.886;8.728;2023-06-22T13:52:46;11.33;;;5.43;;
2866;SDS011;1441;48.886;8.728;2023-06-22T13:55:12;10.07;;;4.83;;
2866;SDS011;1441;48.886;8.728;2023-06-22T13:57:39;7.50;;;5.57;;
2866;SDS011;1441;48.886;8.728;2023-06-22T14:00:05;13.47;;;5.83;;
2866;SDS011;1441;48.886;8.728;2023-06-22T14:02:32;8.30;;;6.00;;
2866;SDS011;1441;48.886;8.728;2023-06-22T14:04:58;9.07;;;4.90;;
2866;SDS011;1441;48.886;8.728;2023-06-22T14:07:23;10.17;;;4.80;;
2866;SDS011;1441;48.886;8.728;2023-06-22T14:09:49;8.40;;;5.53;;
2866;SDS011;1441;48.886;8.728;2023-06-22T14:12:15;7.93;;;4.60;;
2866;SDS011;1441;48.886;8.728;2023-06-22T14:14:42;7.60;;;5.17;;
2866;SDS011;1441;48.886;8.728;2023-06-22T14:17:08;13.20;;;5.10;;
2866;SDS011;1441;48.886;8.728;2023-06-22T14:19:35;9.80;;;4.83;;
2866;SDS011;1441;48.886;8.728;2023-06-22T14:22:00;10.80;;;5.10;;
2866;SDS011;1441;48.886;8.728;2023-06-22T14:24:26;9.40;;;5.73;;
2866;SDS011;1441;48.886;8.728;2023-06-22T14:26:52;11.27;;;5.40;;
2866;SDS011;1441;48.886;8.728;2023-06-22T14:29:19;12.23;;;5.30;;
2866;SDS011;1441;48.886;8.728;2023-06-22T14:31:45;7.00;;;4.50;;
2866;SDS011;1441;48.886;8.728;2023-06-22T14:34:11;7.40;;;4.70;;
2866;SDS011;1441;48.886;8.728;2023-06-22T14:36:36;9.90;;;5.10;;
2866;SDS011;1441;48.886;8.728;2023-06-22T14:39:02;10.37;;;6.10;;
2866;SDS011;1441;48.886;8.728;2023-06-22T14:41:29;12.77;;;5.57;;
2866;SDS011;1441;48.886;8.728;2023-06-22T14:43:55;8.60;;;5.17;;
2866;SDS011;1441;48.886;8.728;2023-06-22T14:46:20;9.10;;;5.37;;
2866;SDS011;1441;48.886;8.728;2023-06-22T14:48:46;9.03;;;6.00;;
2866;SDS011;1441;48.886;8.728;2023-06-22T14:51:12;6.57;;;5.43;;
2866;SDS011;1441;48.886;8.728;2023-06-22T14:53:38;10.50;;;6.43;;
2866;SDS011;1441;48.886;8.728;2023-06-22T14:56:04;9.77;;;6.67;;
2866;SDS011;1441;48.886;8.728;2023-06-22T14:58:30;10.77;;;7.10;;
2866;SDS011;1441;48.886;8.728;2023-06-22T15:01:02;7.60;;;5.90;;
2866;SDS011;1441;48.886;8.728;2023-06-22T15:03:30;11.10;;;6.83;;
2866;SDS011;1441;48.886;8.728;2023-06-22T15:05:57;10.37;;;6.53;;
2866;SDS011;1441;48.886;8.728;2023-06-22T15:08:23;12.30;;;6.33;;
2866;SDS011;1441;48.886;8.728;2023-06-22T15:10:49;10.93;;;6.00;;